Terminal Aerodrome Forecast
Issued by NWS Burlington, VT

Home | Current Version | Previous Version | Text Only | Print | Product List | Glossary On
Versions: 1 2 3 4 5 6 7 8 9 10 11 12 13 14 15
000
FTUS41 KBTV 262320
TAFBTV
TAF
KBTV 262320Z 2700/2724 36005KT 1SM -RA BR OVC010
     FM270100 34004KT 1SM -RASN BR BKN015 OVC028
     FM270400 34004KT 2SM -SN BR BKN008 OVC010
     FM270700 34004KT 6SM BR VCSH OVC015
     FM271300 35008KT P6SM SCT020 OVC030=

USA.gov is the U.S. government's official web portal to all federal, state and local government web resources and services.